sensor_id;sensor_type;location;lat;lon;timestamp;P1;durP1;ratioP1;P2;durP2;ratioP2
60641;SDS011;46837;52.446;-1.930;2022-12-10T00:00:07;8.14;;;5.44;;
60641;SDS011;46837;52.446;-1.930;2022-12-10T00:01:08;8.86;;;5.34;;
60641;SDS011;46837;52.446;-1.930;2022-12-10T00:02:07;12.36;;;6.52;;
60641;SDS011;46837;52.446;-1.930;2022-12-10T00:03:07;11.66;;;6.50;;
60641;SDS011;46837;52.446;-1.930;2022-12-10T00:04:07;12.00;;;7.22;;
60641;SDS011;46837;52.446;-1.930;2022-12-10T00:05:07;11.60;;;7.08;;
60641;SDS011;46837;52.446;-1.930;2022-12-10T00:06:09;7.36;;;5.68;;
60641;SDS011;46837;52.446;-1.930;2022-12-10T00:07:07;10.94;;;5.86;;
60641;SDS011;46837;52.446;-1.930;2022-12-10T00:08:07;10.90;;;7.48;;
60641;SDS011;46837;52.446;-1.930;2022-12-10T00:09:07;11.98;;;7.22;;
60641;SDS011;46837;52.446;-1.930;2022-12-10T00:10:07;12.62;;;7.28;;
60641;SDS011;46837;52.446;-1.930;2022-12-10T00:11:07;12.16;;;7.48;;
60641;SDS011;46837;52.446;-1.930;2022-12-10T00:12:07;12.68;;;7.88;;
60641;SDS011;46837;52.446;-1.930;2022-12-10T00:13:07;13.22;;;6.36;;
60641;SDS011;46837;52.446;-1.930;2022-12-10T00:14:07;12.68;;;7.24;;
60641;SDS011;46837;52.446;-1.930;2022-12-10T00:15:07;12.86;;;7.74;;
60641;SDS011;46837;52.446;-1.930;2022-12-10T00:16:09;14.94;;;7.02;;
60641;SDS011;46837;52.446;-1.930;2022-12-10T00:17:07;12.24;;;6.84;;
60641;SDS011;46837;52.446;-1.930;2022-12-10T00:18:07;15.70;;;7.76;;
60641;SDS011;46837;52.446;-1.930;2022-12-10T00:19:07;11.14;;;7.04;;
60641;SDS011;46837;52.446;-1.930;2022-12-10T00:20:07;19.36;;;8.48;;
60641;SDS011;46837;52.446;-1.930;2022-12-10T00:21:08;8.42;;;6.72;;
60641;SDS011;46837;52.446;-1.930;2022-12-10T00:22:07;19.96;;;7.78;;
60641;SDS011;46837;52.446;-1.930;2022-12-10T00:23:07;12.66;;;6.66;;
60641;SDS011;46837;52.446;-1.930;2022-12-10T00:24:07;17.28;;;7.82;;
60641;SDS011;46837;52.446;-1.930;2022-12-10T00:25:07;12.98;;;6.54;;
60641;SDS011;46837;52.446;-1.930;2022-12-10T00:27:07;12.10;;;7.56;;
60641;SDS011;46837;52.446;-1.930;2022-12-10T00:28:07;11.72;;;7.82;;
60641;SDS011;46837;52.446;-1.930;2022-12-10T00:29:07;12.94;;;6.48;;
60641;SDS011;46837;52.446;-1.930;2022-12-10T00:30:07;11.70;;;6.60;;
60641;SDS011;46837;52.446;-1.930;2022-12-10T00:31:08;10.44;;;6.68;;
60641;SDS011;46837;52.446;-1.930;2022-12-10T00:32:07;10.92;;;6.84;;
60641;SDS011;46837;52.446;-1.930;2022-12-10T00:33:07;11.02;;;6.70;;
60641;SDS011;46837;52.446;-1.930;2022-12-10T00:34:07;13.60;;;8.16;;
60641;SDS011;46837;52.446;-1.930;2022-12-10T00:35:07;11.52;;;6.86;;
60641;SDS011;46837;52.446;-1.930;2022-12-10T00:36:08;14.26;;;7.88;;
60641;SDS011;46837;52.446;-1.930;2022-12-10T00:37:07;14.86;;;9.32;;
60641;SDS011;46837;52.446;-1.930;2022-12-10T00:38:07;13.84;;;7.18;;
60641;SDS011;46837;52.446;-1.930;2022-12-10T00:39:07;12.48;;;7.04;;
60641;SDS011;46837;52.446;-1.930;2022-12-10T00:40:07;14.64;;;7.46;;
60641;SDS011;46837;52.446;-1.930;2022-12-10T00:41:07;14.54;;;7.88;;
60641;SDS011;46837;52.446;-1.930;2022-12-10T00:42:07;14.26;;;7.00;;
60641;SDS011;46837;52.446;-1.930;2022-12-10T00:43:07;12.40;;;7.74;;
60641;SDS011;46837;52.446;-1.930;2022-12-10T00:44:07;12.48;;;6.72;;
60641;SDS011;46837;52.446;-1.930;2022-12-10T00:45:07;14.40;;;7.40;;
60641;SDS011;46837;52.446;-1.930;2022-12-10T00:46:07;11.04;;;7.10;;
60641;SDS011;46837;52.446;-1.930;2022-12-10T00:47:07;13.92;;;7.62;;
60641;SDS011;46837;52.446;-1.930;2022-12-10T00:48:07;13.12;;;7.76;;
60641;SDS011;46837;52.446;-1.930;2022-12-10T00:49:07;18.02;;;8.48;;
60641;SDS011;46837;52.446;-1.930;2022-12-10T00:50:07;10.78;;;6.34;;
60641;SDS011;46837;52.446;-1.930;2022-12-10T00:51:08;14.96;;;7.56;;
60641;SDS011;46837;52.446;-1.930;2022-12-10T00:52:07;15.82;;;7.26;;
60641;SDS011;46837;52.446;-1.930;2022-12-10T00:53:07;14.40;;;7.98;;
60641;SDS011;46837;52.446;-1.930;2022-12-10T00:54:07;12.40;;;7.42;;
60641;SDS011;46837;52.446;-1.930;2022-12-10T00:55:07;22.82;;;8.58;;
60641;SDS011;46837;52.446;-1.930;2022-12-10T00:56:07;13.98;;;7.48;;
60641;SDS011;46837;52.446;-1.930;2022-12-10T00:57:07;14.94;;;7.46;;
60641;SDS011;46837;52.446;-1.930;2022-12-10T00:58:07;14.38;;;7.66;;
60641;SDS011;46837;52.446;-1.930;2022-12-10T00:59:07;16.30;;;7.70;;
60641;SDS011;46837;52.446;-1.930;2022-12-10T01:00:07;11.56;;;7.54;;
60641;SDS011;46837;52.446;-1.930;2022-12-10T01:01:17;12.04;;;8.48;;
60641;SDS011;46837;52.446;-1.930;2022-12-10T01:02:07;14.94;;;8.00;;
60641;SDS011;46837;52.446;-1.930;2022-12-10T01:03:07;16.84;;;8.84;;
60641;SDS011;46837;52.446;-1.930;2022-12-10T01:04:08;12.68;;;7.54;;
60641;SDS011;46837;52.446;-1.930;2022-12-10T01:05:07;12.42;;;7.34;;
60641;SDS011;46837;52.446;-1.930;2022-12-10T01:06:11;18.44;;;7.50;;
60641;SDS011;46837;52.446;-1.930;2022-12-10T01:07:07;15.52;;;7.56;;
60641;SDS011;46837;52.446;-1.930;2022-12-10T01:08:07;14.36;;;6.90;;
60641;SDS011;46837;52.446;-1.930;2022-12-10T01:09:08;12.94;;;6.62;;
60641;SDS011;46837;52.446;-1.930;2022-12-10T01:10:07;10.92;;;6.82;;
60641;SDS011;46837;52.446;-1.930;2022-12-10T01:11:07;9.36;;;6.10;;
60641;SDS011;46837;52.446;-1.930;2022-12-10T01:12:07;11.46;;;5.96;;
60641;SDS011;46837;52.446;-1.930;2022-12-10T01:13:07;10.38;;;6.66;;
60641;SDS011;46837;52.446;-1.930;2022-12-10T01:14:08;9.36;;;5.82;;
60641;SDS011;46837;52.446;-1.930;2022-12-10T01:15:07;10.14;;;5.88;;
60641;SDS011;46837;52.446;-1.930;2022-12-10T01:16:07;12.40;;;6.94;;
60641;SDS011;46837;52.446;-1.930;2022-12-10T01:17:07;10.58;;;6.96;;
60641;SDS011;46837;52.446;-1.930;2022-12-10T01:18:07;10.72;;;6.54;;
60641;SDS011;46837;52.446;-1.930;2022-12-10T01:19:07;11.62;;;7.00;;
60641;SDS011;46837;52.446;-1.930;2022-12-10T01:20:07;14.52;;;7.64;;
60641;SDS011;46837;52.446;-1.930;2022-12-10T01:21:08;18.08;;;7.62;;
60641;SDS011;46837;52.446;-1.930;2022-12-10T01:22:07;16.44;;;7.28;;
60641;SDS011;46837;52.446;-1.930;2022-12-10T01:23:07;14.82;;;8.28;;
60641;SDS011;46837;52.446;-1.930;2022-12-10T01:24:07;11.18;;;6.36;;
60641;SDS011;46837;52.446;-1.930;2022-12-10T01:25:07;16.56;;;7.00;;
60641;SDS011;46837;52.446;-1.930;2022-12-10T01:26:09;11.44;;;6.50;;
60641;SDS011;46837;52.446;-1.930;2022-12-10T01:27:07;14.06;;;7.28;;
60641;SDS011;46837;52.446;-1.930;2022-12-10T01:28:07;15.22;;;8.12;;
60641;SDS011;46837;52.446;-1.930;2022-12-10T01:29:07;14.74;;;8.56;;
60641;SDS011;46837;52.446;-1.930;2022-12-10T01:30:07;17.00;;;8.78;;
60641;SDS011;46837;52.446;-1.930;2022-12-10T01:31:11;15.68;;;7.92;;
60641;SDS011;46837;52.446;-1.930;2022-12-10T01:32:07;14.32;;;7.96;;
60641;SDS011;46837;52.446;-1.930;2022-12-10T01:33:07;15.30;;;8.32;;
60641;SDS011;46837;52.446;-1.930;2022-12-10T01:34:07;16.86;;;7.98;;
60641;SDS011;46837;52.446;-1.930;2022-12-10T01:35:07;14.32;;;8.20;;
60641;SDS011;46837;52.446;-1.930;2022-12-10T01:36:08;19.84;;;9.02;;
60641;SDS011;46837;52.446;-1.930;2022-12-10T01:37:07;11.76;;;7.38;;
60641;SDS011;46837;52.446;-1.930;2022-12-10T01:38:07;12.34;;;7.04;;
60641;SDS011;46837;52.446;-1.930;2022-12-10T01:39:08;20.06;;;8.72;;
60641;SDS011;46837;52.446;-1.930;2022-12-10T01:40:07;17.12;;;8.12;;
60641;SDS011;46837;52.446;-1.930;2022-12-10T01:41:07;12.96;;;7.32;;
60641;SDS011;46837;52.446;-1.930;2022-12-10T01:42:09;10.18;;;6.46;;
60641;SDS011;46837;52.446;-1.930;2022-12-10T01:43:10;12.56;;;6.20;;
60641;SDS011;46837;52.446;-1.930;2022-12-10T01:45:09;11.32;;;6.62;;
60641;SDS011;46837;52.446;-1.930;2022-12-10T01:46:07;11.46;;;7.46;;
60641;SDS011;46837;52.446;-1.930;2022-12-10T01:47:07;13.76;;;7.30;;
60641;SDS011;46837;52.446;-1.930;2022-12-10T01:48:07;12.26;;;6.72;;
60641;SDS011;46837;52.446;-1.930;2022-12-10T01:49:09;11.86;;;6.82;;
60641;SDS011;46837;52.446;-1.930;2022-12-10T01:50:07;11.40;;;6.30;;
60641;SDS011;46837;52.446;-1.930;2022-12-10T01:51:07;14.54;;;6.44;;
60641;SDS011;46837;52.446;-1.930;2022-12-10T01:52:08;9.86;;;6.20;;
60641;SDS011;46837;52.446;-1.930;2022-12-10T01:53:07;8.80;;;5.44;;
60641;SDS011;46837;52.446;-1.930;2022-12-10T01:54:08;12.96;;;6.84;;
60641;SDS011;46837;52.446;-1.930;2022-12-10T01:55:08;10.64;;;5.00;;
60641;SDS011;46837;52.446;-1.930;2022-12-10T01:56:08;10.30;;;7.00;;
60641;SDS011;46837;52.446;-1.930;2022-12-10T01:57:14;11.30;;;6.88;;
60641;SDS011;46837;52.446;-1.930;2022-12-10T01:58:07;9.38;;;5.76;;
60641;SDS011;46837;52.446;-1.930;2022-12-10T01:59:07;11.50;;;5.82;;
60641;SDS011;46837;52.446;-1.930;2022-12-10T02:00:07;15.42;;;5.20;;
60641;SDS011;46837;52.446;-1.930;2022-12-10T02:01:08;14.30;;;6.18;;
60641;SDS011;46837;52.446;-1.930;2022-12-10T02:03:09;13.22;;;6.40;;
60641;SDS011;46837;52.446;-1.930;2022-12-10T02:05:13;9.04;;;6.90;;
60641;SDS011;46837;52.446;-1.930;2022-12-10T02:09:12;10.64;;;6.40;;
60641;SDS011;46837;52.446;-1.930;2022-12-10T02:11:11;11.22;;;5.54;;
60641;SDS011;46837;52.446;-1.930;2022-12-10T02:12:11;8.08;;;5.94;;
60641;SDS011;46837;52.446;-1.930;2022-12-10T02:15:17;10.32;;;5.46;;
60641;SDS011;46837;52.446;-1.930;2022-12-10T02:17:13;10.36;;;6.94;;
60641;SDS011;46837;52.446;-1.930;2022-12-10T02:18:08;12.86;;;6.18;;
60641;SDS011;46837;52.446;-1.930;2022-12-10T02:19:11;6.64;;;5.26;;
60641;SDS011;46837;52.446;-1.930;2022-12-10T02:20:53;9.18;;;5.62;;
60641;SDS011;46837;52.446;-1.930;2022-12-10T02:21:08;9.22;;;6.14;;
60641;SDS011;46837;52.446;-1.930;2022-12-10T02:22:07;13.64;;;5.82;;
60641;SDS011;46837;52.446;-1.930;2022-12-10T02:23:10;8.02;;;6.00;;
60641;SDS011;46837;52.446;-1.930;2022-12-10T02:24:08;7.88;;;6.28;;
60641;SDS011;46837;52.446;-1.930;2022-12-10T02:25:07;11.94;;;5.48;;
60641;SDS011;46837;52.446;-1.930;2022-12-10T02:26:11;10.50;;;6.64;;
60641;SDS011;46837;52.446;-1.930;2022-12-10T02:28:52;12.72;;;7.66;;
60641;SDS011;46837;52.446;-1.930;2022-12-10T02:29:13;12.92;;;7.24;;
60641;SDS011;46837;52.446;-1.930;2022-12-10T02:30:07;13.12;;;7.34;;
60641;SDS011;46837;52.446;-1.930;2022-12-10T02:31:07;11.18;;;6.14;;
60641;SDS011;46837;52.446;-1.930;2022-12-10T02:32:30;9.92;;;5.96;;
60641;SDS011;46837;52.446;-1.930;2022-12-10T02:33:07;12.82;;;5.36;;
60641;SDS011;46837;52.446;-1.930;2022-12-10T02:34:07;8.80;;;5.82;;
60641;SDS011;46837;52.446;-1.930;2022-12-10T02:35:09;9.02;;;5.48;;
60641;SDS011;46837;52.446;-1.930;2022-12-10T02:36:07;13.40;;;6.64;;
60641;SDS011;46837;52.446;-1.930;2022-12-10T02:37:10;10.62;;;6.00;;
60641;SDS011;46837;52.446;-1.930;2022-12-10T02:39:08;9.76;;;6.54;;
60641;SDS011;46837;52.446;-1.930;2022-12-10T02:40:08;8.96;;;5.04;;
60641;SDS011;46837;52.446;-1.930;2022-12-10T02:41:08;13.38;;;5.84;;
60641;SDS011;46837;52.446;-1.930;2022-12-10T02:42:07;15.02;;;5.92;;
60641;SDS011;46837;52.446;-1.930;2022-12-10T02:43:07;7.58;;;5.70;;
60641;SDS011;46837;52.446;-1.930;2022-12-10T02:44:08;11.00;;;6.64;;
60641;SDS011;46837;52.446;-1.930;2022-12-10T02:45:07;12.36;;;6.02;;
60641;SDS011;46837;52.446;-1.930;2022-12-10T02:46:07;9.74;;;5.18;;
60641;SDS011;46837;52.446;-1.930;2022-12-10T02:47:07;9.68;;;5.52;;
60641;SDS011;46837;52.446;-1.930;2022-12-10T02:48:07;13.32;;;5.56;;
60641;SDS011;46837;52.446;-1.930;2022-12-10T02:49:07;7.86;;;5.10;;
60641;SDS011;46837;52.446;-1.930;2022-12-10T02:50:07;11.14;;;4.68;;
60641;SDS011;46837;52.446;-1.930;2022-12-10T02:51:07;13.02;;;6.00;;
60641;SDS011;46837;52.446;-1.930;2022-12-10T02:52:08;5.54;;;4.04;;
60641;SDS011;46837;52.446;-1.930;2022-12-10T02:53:07;10.58;;;6.24;;
60641;SDS011;46837;52.446;-1.930;2022-12-10T02:54:31;13.90;;;5.56;;
60641;SDS011;46837;52.446;-1.930;2022-12-10T02:55:10;10.60;;;5.82;;
60641;SDS011;46837;52.446;-1.930;2022-12-10T02:58:11;19.36;;;6.22;;
60641;SDS011;46837;52.446;-1.930;2022-12-10T03:00:11;14.02;;;7.46;;
60641;SDS011;46837;52.446;-1.930;2022-12-10T03:02:09;15.64;;;5.84;;
60641;SDS011;46837;52.446;-1.930;2022-12-10T03:06:12;13.04;;;6.16;;
60641;SDS011;46837;52.446;-1.930;2022-12-10T03:07:08;15.24;;;7.40;;
60641;SDS011;46837;52.446;-1.930;2022-12-10T03:09:12;10.48;;;5.36;;
60641;SDS011;46837;52.446;-1.930;2022-12-10T03:10:10;13.24;;;6.18;;
60641;SDS011;46837;52.446;-1.930;2022-12-10T03:11:11;10.98;;;5.34;;
60641;SDS011;46837;52.446;-1.930;2022-12-10T03:12:09;11.22;;;6.66;;
60641;SDS011;46837;52.446;-1.930;2022-12-10T03:13:07;13.54;;;5.60;;
60641;SDS011;46837;52.446;-1.930;2022-12-10T03:14:09;8.60;;;5.04;;
60641;SDS011;46837;52.446;-1.930;2022-12-10T03:15:08;18.10;;;5.00;;
60641;SDS011;46837;52.446;-1.930;2022-12-10T03:16:07;7.00;;;5.48;;
60641;SDS011;46837;52.446;-1.930;2022-12-10T03:17:07;11.30;;;5.42;;
60641;SDS011;46837;52.446;-1.930;2022-12-10T03:18:07;8.86;;;5.02;;
60641;SDS011;46837;52.446;-1.930;2022-12-10T03:19:09;12.42;;;5.82;;
60641;SDS011;46837;52.446;-1.930;2022-12-10T03:20:07;10.34;;;6.00;;
60641;SDS011;46837;52.446;-1.930;2022-12-10T03:21:07;6.80;;;5.40;;
60641;SDS011;46837;52.446;-1.930;2022-12-10T03:22:07;10.28;;;4.86;;
60641;SDS011;46837;52.446;-1.930;2022-12-10T03:23:07;12.54;;;4.98;;
60641;SDS011;46837;52.446;-1.930;2022-12-10T03:24:08;8.92;;;5.72;;
60641;SDS011;46837;52.446;-1.930;2022-12-10T03:25:07;10.00;;;5.68;;
60641;SDS011;46837;52.446;-1.930;2022-12-10T03:26:07;10.34;;;5.92;;
60641;SDS011;46837;52.446;-1.930;2022-12-10T03:27:07;7.14;;;4.74;;
60641;SDS011;46837;52.446;-1.930;2022-12-10T03:28:07;7.42;;;5.74;;
60641;SDS011;46837;52.446;-1.930;2022-12-10T03:29:10;9.86;;;5.14;;
60641;SDS011;46837;52.446;-1.930;2022-12-10T03:30:07;8.54;;;4.92;;
60641;SDS011;46837;52.446;-1.930;2022-12-10T03:31:07;10.32;;;4.72;;
60641;SDS011;46837;52.446;-1.930;2022-12-10T03:32:07;8.12;;;4.78;;
60641;SDS011;46837;52.446;-1.930;2022-12-10T03:33:07;6.54;;;4.52;;
60641;SDS011;46837;52.446;-1.930;2022-12-10T03:34:07;8.32;;;5.80;;
60641;SDS011;46837;52.446;-1.930;2022-12-10T03:35:07;7.68;;;5.26;;
60641;SDS011;46837;52.446;-1.930;2022-12-10T03:36:07;11.30;;;5.20;;
60641;SDS011;46837;52.446;-1.930;2022-12-10T03:37:07;5.82;;;4.40;;
60641;SDS011;46837;52.446;-1.930;2022-12-10T03:38:07;14.80;;;5.14;;
60641;SDS011;46837;52.446;-1.930;2022-12-10T03:39:07;7.50;;;3.72;;
60641;SDS011;46837;52.446;-1.930;2022-12-10T03:40:07;9.54;;;5.08;;
60641;SDS011;46837;52.446;-1.930;2022-12-10T03:41:07;9.08;;;4.62;;
60641;SDS011;46837;52.446;-1.930;2022-12-10T03:42:07;8.90;;;4.80;;
60641;SDS011;46837;52.446;-1.930;2022-12-10T03:43:07;8.72;;;3.70;;
60641;SDS011;46837;52.446;-1.930;2022-12-10T03:44:07;8.34;;;6.06;;
60641;SDS011;46837;52.446;-1.930;2022-12-10T03:45:07;9.40;;;4.32;;
60641;SDS011;46837;52.446;-1.930;2022-12-10T03:46:07;6.28;;;4.70;;
60641;SDS011;46837;52.446;-1.930;2022-12-10T03:47:07;13.24;;;4.58;;
60641;SDS011;46837;52.446;-1.930;2022-12-10T03:48:07;8.76;;;4.02;;
60641;SDS011;46837;52.446;-1.930;2022-12-10T03:49:07;8.36;;;4.18;;
60641;SDS011;46837;52.446;-1.930;2022-12-10T03:50:07;9.76;;;4.68;;
60641;SDS011;46837;52.446;-1.930;2022-12-10T03:51:07;9.70;;;5.42;;
60641;SDS011;46837;52.446;-1.930;2022-12-10T03:52:07;8.98;;;4.56;;
60641;SDS011;46837;52.446;-1.930;2022-12-10T03:53:07;7.00;;;4.50;;
60641;SDS011;46837;52.446;-1.930;2022-12-10T03:54:07;6.00;;;3.38;;
60641;SDS011;46837;52.446;-1.930;2022-12-10T03:55:07;9.44;;;3.90;;
60641;SDS011;46837;52.446;-1.930;2022-12-10T03:56:07;10.42;;;5.24;;
60641;SDS011;46837;52.446;-1.930;2022-12-10T03:57:07;9.26;;;4.90;;
60641;SDS011;46837;52.446;-1.930;2022-12-10T03:58:07;12.42;;;3.98;;
60641;SDS011;46837;52.446;-1.930;2022-12-10T03:59:07;21.16;;;4.78;;
60641;SDS011;46837;52.446;-1.930;2022-12-10T04:00:07;8.38;;;4.70;;
60641;SDS011;46837;52.446;-1.930;2022-12-10T04:01:07;15.74;;;7.70;;
60641;SDS011;46837;52.446;-1.930;2022-12-10T04:02:07;19.24;;;6.24;;
60641;SDS011;46837;52.446;-1.930;2022-12-10T04:03:07;14.80;;;6.16;;
60641;SDS011;46837;52.446;-1.930;2022-12-10T04:04:07;11.14;;;5.02;;
60641;SDS011;46837;52.446;-1.930;2022-12-10T04:05:07;7.14;;;4.94;;
60641;SDS011;46837;52.446;-1.930;2022-12-10T04:06:08;6.12;;;3.58;;
60641;SDS011;46837;52.446;-1.930;2022-12-10T04:07:07;11.32;;;4.20;;
60641;SDS011;46837;52.446;-1.930;2022-12-10T04:08:07;7.84;;;4.02;;
60641;SDS011;46837;52.446;-1.930;2022-12-10T04:09:08;11.68;;;4.96;;
60641;SDS011;46837;52.446;-1.930;2022-12-10T04:10:07;10.76;;;4.72;;
60641;SDS011;46837;52.446;-1.930;2022-12-10T04:11:08;8.40;;;5.46;;
60641;SDS011;46837;52.446;-1.930;2022-12-10T04:12:07;8.12;;;4.58;;
60641;SDS011;46837;52.446;-1.930;2022-12-10T04:13:11;8.74;;;4.58;;
60641;SDS011;46837;52.446;-1.930;2022-12-10T04:14:11;9.98;;;4.68;;
60641;SDS011;46837;52.446;-1.930;2022-12-10T04:15:11;4.32;;;3.34;;
60641;SDS011;46837;52.446;-1.930;2022-12-10T04:16:11;11.28;;;4.02;;
60641;SDS011;46837;52.446;-1.930;2022-12-10T04:17:07;11.42;;;4.78;;
60641;SDS011;46837;52.446;-1.930;2022-12-10T04:18:07;8.56;;;5.12;;
60641;SDS011;46837;52.446;-1.930;2022-12-10T04:19:08;9.34;;;5.10;;
60641;SDS011;46837;52.446;-1.930;2022-12-10T04:20:07;11.12;;;6.72;;
60641;SDS011;46837;52.446;-1.930;2022-12-10T04:21:11;8.56;;;5.06;;
60641;SDS011;46837;52.446;-1.930;2022-12-10T04:22:11;10.78;;;5.90;;
60641;SDS011;46837;52.446;-1.930;2022-12-10T04:23:11;9.82;;;5.52;;
60641;SDS011;46837;52.446;-1.930;2022-12-10T04:24:11;9.90;;;5.68;;
60641;SDS011;46837;52.446;-1.930;2022-12-10T04:25:11;9.60;;;6.12;;
60641;SDS011;46837;52.446;-1.930;2022-12-10T04:26:11;15.48;;;5.62;;
60641;SDS011;46837;52.446;-1.930;2022-12-10T04:27:11;8.70;;;5.68;;
60641;SDS011;46837;52.446;-1.930;2022-12-10T04:28:07;7.86;;;5.42;;
60641;SDS011;46837;52.446;-1.930;2022-12-10T04:29:07;10.10;;;5.96;;
60641;SDS011;46837;52.446;-1.930;2022-12-10T04:30:07;10.48;;;5.88;;
60641;SDS011;46837;52.446;-1.930;2022-12-10T04:31:07;10.60;;;6.12;;
60641;SDS011;46837;52.446;-1.930;2022-12-10T04:32:07;8.16;;;5.50;;
60641;SDS011;46837;52.446;-1.930;2022-12-10T04:33:07;10.32;;;6.36;;
60641;SDS011;46837;52.446;-1.930;2022-12-10T04:34:07;11.54;;;5.78;;
60641;SDS011;46837;52.446;-1.930;2022-12-10T04:35:07;11.40;;;5.72;;
60641;SDS011;46837;52.446;-1.930;2022-12-10T04:36:07;11.50;;;5.16;;
60641;SDS011;46837;52.446;-1.930;2022-12-10T04:37:07;10.52;;;5.76;;
60641;SDS011;46837;52.446;-1.930;2022-12-10T04:38:07;7.96;;;5.42;;
60641;SDS011;46837;52.446;-1.930;2022-12-10T04:39:07;12.40;;;4.48;;
60641;SDS011;46837;52.446;-1.930;2022-12-10T04:40:07;8.52;;;4.94;;
60641;SDS011;46837;52.446;-1.930;2022-12-10T04:41:11;10.30;;;6.82;;
60641;SDS011;46837;52.446;-1.930;2022-12-10T04:42:07;8.30;;;5.56;;
60641;SDS011;46837;52.446;-1.930;2022-12-10T04:43:07;8.44;;;4.86;;
60641;SDS011;46837;52.446;-1.930;2022-12-10T04:44:07;7.72;;;4.24;;
60641;SDS011;46837;52.446;-1.930;2022-12-10T04:45:07;11.94;;;4.44;;
60641;SDS011;46837;52.446;-1.930;2022-12-10T04:46:07;5.82;;;3.72;;
60641;SDS011;46837;52.446;-1.930;2022-12-10T04:47:07;5.52;;;4.12;;
60641;SDS011;46837;52.446;-1.930;2022-12-10T04:48:07;6.34;;;4.98;;
60641;SDS011;46837;52.446;-1.930;2022-12-10T04:49:07;5.98;;;4.38;;
60641;SDS011;46837;52.446;-1.930;2022-12-10T04:50:07;7.84;;;4.36;;
60641;SDS011;46837;52.446;-1.930;2022-12-10T04:51:07;5.92;;;3.88;;
60641;SDS011;46837;52.446;-1.930;2022-12-10T04:52:07;7.54;;;4.98;;
60641;SDS011;46837;52.446;-1.930;2022-12-10T04:53:07;6.46;;;3.94;;
60641;SDS011;46837;52.446;-1.930;2022-12-10T04:54:07;5.94;;;3.90;;
60641;SDS011;46837;52.446;-1.930;2022-12-10T04:55:07;8.90;;;4.72;;
60641;SDS011;46837;52.446;-1.930;2022-12-10T04:56:07;6.14;;;4.88;;
60641;SDS011;46837;52.446;-1.930;2022-12-10T04:57:07;10.02;;;4.18;;
60641;SDS011;46837;52.446;-1.930;2022-12-10T04:58:07;7.78;;;5.04;;
60641;SDS011;46837;52.446;-1.930;2022-12-10T04:59:07;7.48;;;3.90;;
60641;SDS011;46837;52.446;-1.930;2022-12-10T05:00:07;8.58;;;4.88;;
60641;SDS011;46837;52.446;-1.930;2022-12-10T05:01:07;6.40;;;3.94;;
60641;SDS011;46837;52.446;-1.930;2022-12-10T05:02:07;6.66;;;4.40;;
60641;SDS011;46837;52.446;-1.930;2022-12-10T05:03:07;8.30;;;3.66;;
60641;SDS011;46837;52.446;-1.930;2022-12-10T05:04:08;7.50;;;4.22;;
60641;SDS011;46837;52.446;-1.930;2022-12-10T05:05:07;3.88;;;3.32;;
60641;SDS011;46837;52.446;-1.930;2022-12-10T05:06:08;9.34;;;4.60;;
60641;SDS011;46837;52.446;-1.930;2022-12-10T05:07:07;8.44;;;4.44;;
60641;SDS011;46837;52.446;-1.930;2022-12-10T05:08:07;7.82;;;5.74;;
60641;SDS011;46837;52.446;-1.930;2022-12-10T05:09:07;11.28;;;4.76;;
60641;SDS011;46837;52.446;-1.930;2022-12-10T05:10:07;6.28;;;4.72;;
60641;SDS011;46837;52.446;-1.930;2022-12-10T05:11:08;7.24;;;5.20;;
60641;SDS011;46837;52.446;-1.930;2022-12-10T05:12:07;5.74;;;3.60;;
60641;SDS011;46837;52.446;-1.930;2022-12-10T05:13:07;5.34;;;3.98;;
60641;SDS011;46837;52.446;-1.930;2022-12-10T05:14:08;4.44;;;3.42;;
60641;SDS011;46837;52.446;-1.930;2022-12-10T05:15:07;6.52;;;3.30;;
60641;SDS011;46837;52.446;-1.930;2022-12-10T05:16:08;6.38;;;4.62;;
60641;SDS011;46837;52.446;-1.930;2022-12-10T05:17:07;6.58;;;4.90;;
60641;SDS011;46837;52.446;-1.930;2022-12-10T05:18:07;8.08;;;5.32;;
60641;SDS011;46837;52.446;-1.930;2022-12-10T05:19:07;11.26;;;4.58;;
60641;SDS011;46837;52.446;-1.930;2022-12-10T05:20:07;6.66;;;4.00;;
60641;SDS011;46837;52.446;-1.930;2022-12-10T05:21:09;7.36;;;5.22;;
60641;SDS011;46837;52.446;-1.930;2022-12-10T05:22:11;7.36;;;4.36;;
60641;SDS011;46837;52.446;-1.930;2022-12-10T05:23:11;6.92;;;4.24;;
60641;SDS011;46837;52.446;-1.930;2022-12-10T05:24:07;9.48;;;4.32;;
60641;SDS011;46837;52.446;-1.930;2022-12-10T05:25:07;8.00;;;4.20;;
60641;SDS011;46837;52.446;-1.930;2022-12-10T05:26:11;8.18;;;5.12;;
60641;SDS011;46837;52.446;-1.930;2022-12-10T05:27:07;7.78;;;4.62;;
60641;SDS011;46837;52.446;-1.930;2022-12-10T05:28:07;7.26;;;4.10;;
60641;SDS011;46837;52.446;-1.930;2022-12-10T05:29:07;6.18;;;4.24;;
60641;SDS011;46837;52.446;-1.930;2022-12-10T05:30:07;7.98;;;5.04;;
60641;SDS011;46837;52.446;-1.930;2022-12-10T05:32:07;7.26;;;5.06;;
60641;SDS011;46837;52.446;-1.930;2022-12-10T05:33:07;6.72;;;4.52;;
60641;SDS011;46837;52.446;-1.930;2022-12-10T05:34:08;5.82;;;3.00;;
60641;SDS011;46837;52.446;-1.930;2022-12-10T05:35:07;6.38;;;3.28;;
60641;SDS011;46837;52.446;-1.930;2022-12-10T05:36:07;11.88;;;4.52;;
60641;SDS011;46837;52.446;-1.930;2022-12-10T05:37:07;7.06;;;4.96;;
60641;SDS011;46837;52.446;-1.930;2022-12-10T05:38:07;7.86;;;4.16;;
60641;SDS011;46837;52.446;-1.930;2022-12-10T05:39:07;7.14;;;5.26;;
60641;SDS011;46837;52.446;-1.930;2022-12-10T05:40:07;5.44;;;3.56;;
60641;SDS011;46837;52.446;-1.930;2022-12-10T05:41:09;12.02;;;5.54;;
60641;SDS011;46837;52.446;-1.930;2022-12-10T05:42:07;5.52;;;4.00;;
60641;SDS011;46837;52.446;-1.930;2022-12-10T05:43:07;6.18;;;3.94;;
60641;SDS011;46837;52.446;-1.930;2022-12-10T05:44:07;7.12;;;4.56;;
60641;SDS011;46837;52.446;-1.930;2022-12-10T05:45:07;4.42;;;3.66;;
60641;SDS011;46837;52.446;-1.930;2022-12-10T05:46:09;7.66;;;3.42;;
60641;SDS011;46837;52.446;-1.930;2022-12-10T05:47:07;5.86;;;4.14;;
60641;SDS011;46837;52.446;-1.930;2022-12-10T05:48:08;6.02;;;4.26;;
60641;SDS011;46837;52.446;-1.930;2022-12-10T05:49:07;5.26;;;4.06;;
60641;SDS011;46837;52.446;-1.930;2022-12-10T05:50:07;7.86;;;4.76;;
60641;SDS011;46837;52.446;-1.930;2022-12-10T05:51:08;7.50;;;4.62;;
60641;SDS011;46837;52.446;-1.930;2022-12-10T05:52:07;5.44;;;4.58;;
60641;SDS011;46837;52.446;-1.930;2022-12-10T05:53:07;6.62;;;4.78;;
60641;SDS011;46837;52.446;-1.930;2022-12-10T05:54:07;8.60;;;4.46;;
60641;SDS011;46837;52.446;-1.930;2022-12-10T05:55:07;6.94;;;4.04;;
60641;SDS011;46837;52.446;-1.930;2022-12-10T05:56:07;8.58;;;4.20;;
60641;SDS011;46837;52.446;-1.930;2022-12-10T05:57:07;7.62;;;4.72;;
60641;SDS011;46837;52.446;-1.930;2022-12-10T05:58:07;6.86;;;4.18;;
60641;SDS011;46837;52.446;-1.930;2022-12-10T05:59:07;6.26;;;4.54;;
60641;SDS011;46837;52.446;-1.930;2022-12-10T06:00:07;8.32;;;4.80;;
60641;SDS011;46837;52.446;-1.930;2022-12-10T06:01:10;5.30;;;4.06;;
60641;SDS011;46837;52.446;-1.930;2022-12-10T06:02:07;6.76;;;4.28;;
60641;SDS011;46837;52.446;-1.930;2022-12-10T06:03:07;17.58;;;7.86;;
60641;SDS011;46837;52.446;-1.930;2022-12-10T06:04:07;14.90;;;4.84;;
60641;SDS011;46837;52.446;-1.930;2022-12-10T06:05:07;5.86;;;4.96;;
60641;SDS011;46837;52.446;-1.930;2022-12-10T06:06:07;8.44;;;4.92;;
60641;SDS011;46837;52.446;-1.930;2022-12-10T06:07:07;7.86;;;5.24;;
60641;SDS011;46837;52.446;-1.930;2022-12-10T06:08:07;7.98;;;4.80;;
60641;SDS011;46837;52.446;-1.930;2022-12-10T06:09:07;10.88;;;5.18;;
60641;SDS011;46837;52.446;-1.930;2022-12-10T06:10:07;11.12;;;5.72;;
60641;SDS011;46837;52.446;-1.930;2022-12-10T06:11:08;11.30;;;5.26;;
60641;SDS011;46837;52.446;-1.930;2022-12-10T06:12:07;6.52;;;5.18;;
60641;SDS011;46837;52.446;-1.930;2022-12-10T06:13:07;4.84;;;4.32;;
60641;SDS011;46837;52.446;-1.930;2022-12-10T06:14:07;6.76;;;4.96;;
60641;SDS011;46837;52.446;-1.930;2022-12-10T06:15:07;9.22;;;4.86;;